Time;durP1;ratioP1;P1;durP2;ratioP2;P2;SDS_P1;SDS_P2;PMS_P1;PMS_P2;Temp;Humidity;BMP_temperature;BMP_pressure;BME280_temperature;BME280_humidity;BME280_pressure;Samples;Min_cycle;Max_cycle;Signal;HPM_P1;HPM_P2
2023/09/13 00:01:34;;;;;;;6.78;1.50;;;;;;;;;;5088743;28;20495;-67
2023/09/13 00:04:02;;;;;;;4.10;1.10;;;;;;;;;;5091437;28;20066;-66
2023/09/13 00:06:29;;;;;;;4.13;1.67;;;;;;;;;;5091319;28;20072;-65
2023/09/13 00:08:58;;;;;;;3.92;1.00;;;;;;;;;;5083820;28;20051;-65
2023/09/13 00:11:25;;;;;;;3.80;0.93;;;;;;;;;;5088849;28;20044;-65
2023/09/13 00:13:52;;;;;;;5.43;1.20;;;;;;;;;;5088369;28;20055;-66
2023/09/13 00:16:20;;;;;;;3.10;0.80;;;;;;;;;;5082396;28;20060;-65
2023/09/13 00:18:47;;;;;;;3.03;0.90;;;;;;;;;;5082224;28;20178;-67
2023/09/13 00:21:14;;;;;;;5.63;0.98;;;;;;;;;;5083982;28;20048;-67
2023/09/13 00:23:41;;;;;;;7.20;1.00;;;;;;;;;;5085355;28;20047;-65
2023/09/13 00:26:11;;;;;;;4.90;1.13;;;;;;;;;;5088027;28;20055;-66
2023/09/13 00:28:38;;;;;;;7.07;1.30;;;;;;;;;;5091715;28;20075;-65
2023/09/13 00:31:05;;;;;;;4.05;1.00;;;;;;;;;;5089442;28;20063;-66
2023/09/13 00:33:33;;;;;;;4.90;0.82;;;;;;;;;;5082821;28;20040;-65
2023/09/13 00:36:00;;;;;;;2.70;0.80;;;;;;;;;;5081799;28;20166;-65
2023/09/13 00:38:27;;;;;;;4.63;0.80;;;;;;;;;;5089119;28;20361;-66
2023/09/13 00:40:55;;;;;;;2.70;0.73;;;;;;;;;;5096694;28;20111;-66
2023/09/13 00:43:23;;;;;;;1.98;0.70;;;;;;;;;;5076982;28;20052;-66
2023/09/13 00:45:51;;;;;;;4.55;0.90;;;;;;;;;;5072597;28;20071;-66
2023/09/13 00:48:19;;;;;;;3.63;0.77;;;;;;;;;;5080051;28;20044;-66
2023/09/13 00:50:48;;;;;;;4.43;1.15;;;;;;;;;;5087493;28;20052;-66
2023/09/13 00:53:15;;;;;;;3.90;0.85;;;;;;;;;;5066112;28;20047;-66
2023/09/13 00:55:43;;;;;;;2.22;0.88;;;;;;;;;;5083350;28;20075;-65
2023/09/13 00:58:10;;;;;;;5.68;0.77;;;;;;;;;;5088298;28;20047;-66
2023/09/13 01:00:39;;;;;;;1.88;0.80;;;;;;;;;;5090643;28;20056;-65
2023/09/13 01:03:07;;;;;;;2.05;0.70;;;;;;;;;;5086193;28;20739;-65
2023/09/13 01:05:36;;;;;;;3.90;1.00;;;;;;;;;;5088097;28;20048;-65
2023/09/13 01:08:04;;;;;;;5.88;0.70;;;;;;;;;;5083357;28;20129;-66
2023/09/13 01:10:31;;;;;;;4.47;0.93;;;;;;;;;;5093233;28;20135;-65
2023/09/13 01:12:58;;;;;;;4.72;0.80;;;;;;;;;;5098367;28;20398;-66
2023/09/13 01:15:27;;;;;;;3.97;1.02;;;;;;;;;;5079155;28;20049;-65
2023/09/13 01:17:59;;;;;;;4.60;1.00;;;;;;;;;;5087509;28;20040;-66
2023/09/13 01:20:35;;;;;;;4.03;0.90;;;;;;;;;;5096676;28;20055;-65
2023/09/13 01:23:12;;;;;;;8.27;1.05;;;;;;;;;;5073340;28;20047;-66
2023/09/13 01:25:47;;;;;;;4.57;0.90;;;;;;;;;;5092320;28;20498;-65
2023/09/13 01:28:19;;;;;;;2.95;0.80;;;;;;;;;;5075661;28;20059;-65
2023/09/13 01:30:48;;;;;;;3.15;0.80;;;;;;;;;;5080452;28;20060;-65
2023/09/13 01:33:15;;;;;;;3.90;0.90;;;;;;;;;;5093371;28;20070;-66
2023/09/13 01:35:43;;;;;;;3.35;1.10;;;;;;;;;;5087786;28;20040;-65
2023/09/13 01:38:10;;;;;;;3.25;0.90;;;;;;;;;;5075811;28;20109;-65
2023/09/13 01:40:38;;;;;;;2.95;1.10;;;;;;;;;;5085149;28;20059;-66
2023/09/13 01:43:06;;;;;;;3.72;1.02;;;;;;;;;;5087877;28;20127;-66
2023/09/13 01:45:34;;;;;;;10.88;1.10;;;;;;;;;;5088072;28;20048;-67
2023/09/13 01:48:03;;;;;;;2.78;1.10;;;;;;;;;;5079366;28;20059;-65
2023/09/13 01:50:31;;;;;;;3.88;1.10;;;;;;;;;;5089503;28;20052;-66
2023/09/13 01:52:58;;;;;;;3.47;0.98;;;;;;;;;;5086263;28;20044;-66
2023/09/13 01:55:25;;;;;;;5.75;0.90;;;;;;;;;;5088831;28;20075;-65
2023/09/13 01:57:52;;;;;;;2.78;0.80;;;;;;;;;;5070059;28;20450;-66
2023/09/13 02:00:20;;;;;;;4.97;0.90;;;;;;;;;;5085144;28;20044;-67
2023/09/13 02:02:47;;;;;;;4.00;1.00;;;;;;;;;;5087033;28;20083;-66
2023/09/13 02:05:16;;;;;;;1.35;0.60;;;;;;;;;;5088391;28;20040;-67
2023/09/13 02:07:43;;;;;;;4.38;0.80;;;;;;;;;;5062810;28;20478;-66
2023/09/13 02:10:11;;;;;;;4.50;0.93;;;;;;;;;;5086950;28;20040;-66
2023/09/13 02:12:38;;;;;;;2.33;0.80;;;;;;;;;;5089125;28;20048;-67
2023/09/13 02:15:06;;;;;;;6.43;0.90;;;;;;;;;;5086175;28;20048;-66
2023/09/13 02:17:32;;;;;;;5.10;1.20;;;;;;;;;;5088834;28;20067;-66
2023/09/13 02:19:59;;;;;;;4.65;0.80;;;;;;;;;;5086504;28;20044;-67
2023/09/13 02:22:28;;;;;;;5.72;0.68;;;;;;;;;;5087914;28;20044;-67
2023/09/13 02:24:55;;;;;;;4.13;0.80;;;;;;;;;;5082447;28;20040;-67
2023/09/13 02:27:23;;;;;;;1.35;0.80;;;;;;;;;;5088552;28;20051;-67
2023/09/13 02:29:50;;;;;;;5.90;0.85;;;;;;;;;;5060015;28;20088;-67
2023/09/13 02:32:17;;;;;;;5.30;1.08;;;;;;;;;;5084598;28;20051;-67
2023/09/13 02:34:45;;;;;;;6.03;1.13;;;;;;;;;;5087386;28;20415;-67
2023/09/13 02:37:12;;;;;;;4.38;0.98;;;;;;;;;;5080357;28;20078;-67
2023/09/13 02:39:42;;;;;;;10.98;1.15;;;;;;;;;;5086915;28;20423;-67
2023/09/13 02:42:10;;;;;;;5.97;1.10;;;;;;;;;;5084258;28;20044;-68
2023/09/13 02:44:37;;;;;;;5.30;1.08;;;;;;;;;;5087794;28;20052;-68
2023/09/13 02:47:05;;;;;;;3.25;1.30;;;;;;;;;;5087160;28;20044;-68
2023/09/13 02:49:33;;;;;;;3.90;1.00;;;;;;;;;;5085671;28;20040;-68
2023/09/13 02:52:01;;;;;;;4.43;1.02;;;;;;;;;;5085342;28;20056;-67
2023/09/13 02:54:28;;;;;;;3.70;1.15;;;;;;;;;;5070692;28;20048;-68
2023/09/13 02:56:56;;;;;;;4.63;0.95;;;;;;;;;;5085832;28;20052;-68
2023/09/13 02:59:24;;;;;;;6.25;1.10;;;;;;;;;;5083735;28;20048;-69
2023/09/13 03:01:51;;;;;;;7.63;1.40;;;;;;;;;;5085858;28;20056;-68
2023/09/13 03:04:18;;;;;;;4.50;1.20;;;;;;;;;;5086332;28;20055;-68
2023/09/13 03:06:46;;;;;;;4.63;1.20;;;;;;;;;;5083904;28;20052;-69
2023/09/13 03:09:13;;;;;;;4.30;1.20;;;;;;;;;;5082326;28;20677;-68
2023/09/13 03:11:40;;;;;;;3.15;0.98;;;;;;;;;;5081699;28;20044;-68
2023/09/13 03:14:09;;;;;;;4.50;1.20;;;;;;;;;;5082069;28;20060;-67
2023/09/13 03:16:36;;;;;;;5.05;1.20;;;;;;;;;;5082547;28;20044;-68
2023/09/13 03:19:06;;;;;;;4.82;0.80;;;;;;;;;;5078601;28;20135;-67
2023/09/13 03:21:33;;;;;;;4.82;1.10;;;;;;;;;;5081093;28;20058;-67
2023/09/13 03:24:00;;;;;;;3.92;1.10;;;;;;;;;;5081231;28;20048;-68
2023/09/13 03:26:27;;;;;;;6.50;1.50;;;;;;;;;;5080351;28;20036;-68
2023/09/13 03:28:55;;;;;;;7.50;1.02;;;;;;;;;;5088192;28;20052;-68
2023/09/13 03:31:24;;;;;;;7.53;1.20;;;;;;;;;;5086198;28;20040;-68
2023/09/13 03:33:53;;;;;;;4.55;1.13;;;;;;;;;;5088165;28;20050;-68
2023/09/13 03:36:20;;;;;;;4.50;1.20;;;;;;;;;;5087855;28;20063;-68
2023/09/13 03:38:48;;;;;;;5.75;1.08;;;;;;;;;;5088359;28;20060;-68
2023/09/13 03:41:20;;;;;;;12.10;1.80;;;;;;;;;;5100909;28;20052;-68
2023/09/13 03:43:48;;;;;;;6.43;1.38;;;;;;;;;;5084316;28;20052;-68
2023/09/13 03:46:15;;;;;;;6.30;1.30;;;;;;;;;;5083968;28;20044;-67
2023/09/13 03:48:44;;;;;;;8.00;1.50;;;;;;;;;;5079357;28;20056;-68
2023/09/13 03:51:11;;;;;;;8.60;1.52;;;;;;;;;;5086959;28;20506;-68
2023/09/13 03:53:39;;;;;;;6.13;1.13;;;;;;;;;;5078227;28;20059;-69
2023/09/13 03:56:06;;;;;;;14.18;1.50;;;;;;;;;;5089843;28;20052;-69
2023/09/13 03:58:34;;;;;;;5.57;1.15;;;;;;;;;;5087741;28;20059;-69
2023/09/13 04:01:02;;;;;;;8.32;1.48;;;;;;;;;;5086156;28;20055;-67
2023/09/13 04:03:30;;;;;;;15.05;1.55;;;;;;;;;;5086100;28;20078;-68
2023/09/13 04:05:58;;;;;;;7.13;1.52;;;;;;;;;;5088058;28;20080;-68
2023/09/13 04:08:26;;;;;;;6.82;1.40;;;;;;;;;;5085137;28;20486;-67
2023/09/13 04:10:53;;;;;;;11.75;1.60;;;;;;;;;;5072655;28;20048;-67
2023/09/13 04:13:20;;;;;;;8.15;1.50;;;;;;;;;;5083124;28;20395;-68
2023/09/13 04:15:48;;;;;;;9.20;1.60;;;;;;;;;;5083287;28;20044;-68
2023/09/13 04:18:15;;;;;;;10.98;1.90;;;;;;;;;;5086101;28;20047;-67
2023/09/13 04:20:43;;;;;;;6.05;1.70;;;;;;;;;;5089063;28;20051;-68
2023/09/13 04:23:12;;;;;;;7.30;1.27;;;;;;;;;;5089477;28;20048;-68
2023/09/13 04:25:39;;;;;;;10.18;1.67;;;;;;;;;;5083034;28;20048;-67
2023/09/13 04:28:06;;;;;;;14.00;1.80;;;;;;;;;;5093818;28;20140;-68
2023/09/13 04:30:34;;;;;;;7.05;1.40;;;;;;;;;;5084730;28;20501;-68
2023/09/13 04:33:02;;;;;;;5.68;1.55;;;;;;;;;;5083344;28;20067;-68
2023/09/13 04:35:30;;;;;;;16.88;1.73;;;;;;;;;;5086696;28;20437;-68
2023/09/13 04:37:57;;;;;;;14.73;2.25;;;;;;;;;;5077343;28;20050;-67
2023/09/13 04:40:25;;;;;;;6.95;1.30;;;;;;;;;;5079746;28;20051;-68
2023/09/13 04:42:56;;;;;;;11.27;1.30;;;;;;;;;;5089660;28;20487;-68
2023/09/13 04:45:22;;;;;;;7.85;1.40;;;;;;;;;;5082178;28;20055;-68
2023/09/13 04:47:50;;;;;;;8.85;1.35;;;;;;;;;;5086337;28;20071;-67
2023/09/13 04:50:17;;;;;;;9.77;1.73;;;;;;;;;;5089987;28;20052;-67
2023/09/13 04:52:44;;;;;;;6.75;1.55;;;;;;;;;;5084169;28;20044;-68
2023/09/13 04:55:12;;;;;;;7.82;1.88;;;;;;;;;;5089001;28;20434;-67
2023/09/13 04:57:40;;;;;;;8.60;1.70;;;;;;;;;;5083490;28;20047;-67
2023/09/13 05:00:10;;;;;;;14.15;2.65;;;;;;;;;;5074442;28;20055;-68
2023/09/13 05:02:38;;;;;;;8.10;1.65;;;;;;;;;;5086765;28;20105;-67
2023/09/13 05:05:06;;;;;;;10.70;2.10;;;;;;;;;;5083709;28;20052;-67
2023/09/13 05:07:33;;;;;;;10.77;2.00;;;;;;;;;;5084712;28;20066;-68
2023/09/13 05:10:00;;;;;;;16.45;2.40;;;;;;;;;;5083737;28;20155;-68
2023/09/13 05:12:28;;;;;;;6.50;1.90;;;;;;;;;;5070412;28;20131;-67
2023/09/13 05:14:56;;;;;;;7.72;1.75;;;;;;;;;;5086902;28;20068;-68
2023/09/13 05:17:23;;;;;;;4.07;1.33;;;;;;;;;;5084607;28;20036;-68
2023/09/13 05:19:51;;;;;;;7.60;1.73;;;;;;;;;;5078199;28;20056;-67
2023/09/13 05:22:18;;;;;;;6.15;1.80;;;;;;;;;;5084390;28;20048;-67
2023/09/13 05:24:45;;;;;;;7.93;1.50;;;;;;;;;;5077329;28;20047;-68
2023/09/13 05:27:12;;;;;;;10.48;1.63;;;;;;;;;;5084225;28;20040;-67
2023/09/13 05:29:40;;;;;;;5.55;1.48;;;;;;;;;;5086265;28;20078;-67
2023/09/13 05:32:08;;;;;;;8.77;1.45;;;;;;;;;;5088562;28;20521;-66
2023/09/13 05:34:36;;;;;;;5.70;1.60;;;;;;;;;;5082663;28;20048;-65
2023/09/13 05:37:03;;;;;;;10.30;1.50;;;;;;;;;;5082536;28;20402;-68
2023/09/13 05:39:30;;;;;;;6.82;1.23;;;;;;;;;;5078064;28;20055;-67
2023/09/13 05:42:00;;;;;;;9.02;1.40;;;;;;;;;;5073422;28;20094;-67
2023/09/13 05:44:27;;;;;;;8.02;1.17;;;;;;;;;;5078237;28;20058;-67
2023/09/13 05:46:54;;;;;;;4.05;1.15;;;;;;;;;;5066347;28;20059;-67
2023/09/13 05:49:23;;;;;;;3.90;0.90;;;;;;;;;;5084595;28;20047;-67
2023/09/13 05:51:50;;;;;;;5.65;1.02;;;;;;;;;;5086555;28;20141;-67
2023/09/13 05:54:18;;;;;;;3.00;0.95;;;;;;;;;;5059075;28;20051;-67
2023/09/13 05:56:45;;;;;;;4.10;1.00;;;;;;;;;;5089937;28;20067;-67
2023/09/13 05:59:12;;;;;;;6.75;1.10;;;;;;;;;;5078820;28;20044;-66
2023/09/13 06:01:40;;;;;;;5.10;0.88;;;;;;;;;;5085850;28;20376;-67
2023/09/13 06:04:07;;;;;;;5.85;0.95;;;;;;;;;;5083950;28;20054;-67
2023/09/13 06:06:36;;;;;;;4.28;1.02;;;;;;;;;;5071708;28;20048;-67
2023/09/13 06:09:03;;;;;;;9.90;1.05;;;;;;;;;;5081361;28;20051;-66
2023/09/13 06:11:31;;;;;;;7.13;1.10;;;;;;;;;;5087300;28;20048;-67
2023/09/13 06:13:58;;;;;;;6.97;1.40;;;;;;;;;;5070274;28;20074;-66
2023/09/13 06:16:26;;;;;;;3.85;0.88;;;;;;;;;;5085902;28;20048;-67
2023/09/13 06:18:53;;;;;;;3.40;0.85;;;;;;;;;;5086962;28;20043;-67
2023/09/13 06:21:21;;;;;;;6.57;0.90;;;;;;;;;;5076211;28;20071;-67
2023/09/13 06:23:49;;;;;;;7.75;1.00;;;;;;;;;;5087288;28;20059;-66
2023/09/13 06:26:16;;;;;;;4.35;0.80;;;;;;;;;;5085661;28;20044;-67
2023/09/13 06:28:44;;;;;;;8.20;0.98;;;;;;;;;;5087197;28;20051;-67
2023/09/13 06:31:12;;;;;;;2.50;0.63;;;;;;;;;;5064576;28;20064;-67
2023/09/13 06:33:39;;;;;;;3.40;0.80;;;;;;;;;;5083053;28;20130;-67
2023/09/13 06:36:07;;;;;;;2.92;0.60;;;;;;;;;;5085243;28;20056;-67
2023/09/13 06:38:34;;;;;;;4.00;0.60;;;;;;;;;;5081248;28;20527;-66
2023/09/13 06:41:03;;;;;;;3.40;0.70;;;;;;;;;;5084071;28;20040;-66
2023/09/13 06:43:30;;;;;;;6.88;0.93;;;;;;;;;;5085700;28;20475;-66
2023/09/13 06:45:57;;;;;;;3.00;0.80;;;;;;;;;;5079955;28;20052;-67
2023/09/13 06:48:24;;;;;;;4.90;0.57;;;;;;;;;;5082783;28;20044;-67
2023/09/13 06:50:52;;;;;;;6.68;0.90;;;;;;;;;;5086756;28;20055;-66
2023/09/13 06:53:19;;;;;;;5.35;0.60;;;;;;;;;;5082735;28;20048;-67
2023/09/13 06:55:46;;;;;;;4.25;0.82;;;;;;;;;;5088510;28;20055;-67
2023/09/13 06:58:15;;;;;;;6.45;0.90;;;;;;;;;;5087423;28;20047;-67
2023/09/13 07:00:42;;;;;;;3.35;0.80;;;;;;;;;;5090154;28;20064;-67
2023/09/13 07:03:09;;;;;;;6.75;0.75;;;;;;;;;;5091831;28;20040;-67
2023/09/13 07:05:37;;;;;;;4.45;0.70;;;;;;;;;;5084563;28;20048;-66
2023/09/13 07:08:04;;;;;;;4.38;0.70;;;;;;;;;;5088182;28;20480;-67
2023/09/13 07:10:32;;;;;;;7.53;0.90;;;;;;;;;;5087287;28;20044;-67
2023/09/13 07:12:59;;;;;;;8.85;1.10;;;;;;;;;;5090084;28;20115;-66
2023/09/13 07:15:28;;;;;;;5.07;0.80;;;;;;;;;;5087079;28;20044;-67
2023/09/13 07:17:55;;;;;;;3.55;0.88;;;;;;;;;;5094434;28;20391;-67
2023/09/13 07:20:23;;;;;;;8.32;1.35;;;;;;;;;;5076812;28;20051;-67
2023/09/13 07:22:50;;;;;;;11.75;1.27;;;;;;;;;;5067084;28;20066;-67
2023/09/13 07:25:17;;;;;;;8.75;1.23;;;;;;;;;;5081755;28;20072;-67
2023/09/13 07:27:45;;;;;;;8.18;1.23;;;;;;;;;;5082778;28;20048;-67
2023/09/13 07:30:12;;;;;;;10.93;1.50;;;;;;;;;;5081290;28;20044;-67
2023/09/13 07:32:41;;;;;;;11.20;1.67;;;;;;;;;;5084997;28;20051;-67
2023/09/13 07:35:09;;;;;;;9.27;1.67;;;;;;;;;;5092653;28;20060;-67
2023/09/13 07:37:36;;;;;;;9.15;1.83;;;;;;;;;;5088187;28;20666;-67
2023/09/13 07:40:04;;;;;;;5.22;1.60;;;;;;;;;;5090133;28;20044;-66
2023/09/13 07:42:32;;;;;;;7.95;1.90;;;;;;;;;;5088620;28;20044;-67
2023/09/13 07:44:59;;;;;;;12.40;1.83;;;;;;;;;;5086586;28;20130;-66
2023/09/13 07:47:28;;;;;;;5.72;1.40;;;;;;;;;;5083382;28;20577;-66
2023/09/13 07:50:00;;;;;;;8.07;1.90;;;;;;;;;;5066959;28;20059;-66
2023/09/13 07:52:27;;;;;;;8.95;1.73;;;;;;;;;;5068573;28;20044;-67
2023/09/13 07:54:54;;;;;;;9.45;1.83;;;;;;;;;;5085434;28;20088;-66
2023/09/13 07:57:22;;;;;;;8.65;1.85;;;;;;;;;;5085910;28;20044;-67
2023/09/13 07:59:49;;;;;;;9.10;1.83;;;;;;;;;;5088122;28;20751;-66
2023/09/13 08:02:16;;;;;;;9.98;2.03;;;;;;;;;;5089464;28;20142;-66
2023/09/13 08:04:43;;;;;;;7.18;1.80;;;;;;;;;;5089304;28;20494;-66
2023/09/13 08:07:12;;;;;;;6.35;2.22;;;;;;;;;;5075536;28;20483;-66
2023/09/13 08:09:39;;;;;;;11.55;2.25;;;;;;;;;;5086391;28;20052;-66
2023/09/13 08:12:06;;;;;;;9.73;2.35;;;;;;;;;;5084334;28;20127;-66
2023/09/13 08:14:34;;;;;;;11.75;2.30;;;;;;;;;;5081383;28;20048;-66
2023/09/13 08:17:02;;;;;;;7.75;1.88;;;;;;;;;;5087562;28;20126;-66
2023/09/13 08:19:29;;;;;;;7.35;1.90;;;;;;;;;;5088597;28;20092;-66
2023/09/13 08:21:56;;;;;;;4.95;1.98;;;;;;;;;;5067571;28;20059;-66
2023/09/13 08:24:25;;;;;;;10.52;1.90;;;;;;;;;;5085666;28;20403;-66
2023/09/13 08:26:52;;;;;;;4.30;1.95;;;;;;;;;;5091483;28;20509;-66
2023/09/13 08:29:20;;;;;;;8.35;1.95;;;;;;;;;;5068522;28;20048;-66
2023/09/13 08:31:47;;;;;;;4.72;1.50;;;;;;;;;;5081473;28;20048;-66
2023/09/13 08:34:14;;;;;;;7.72;2.22;;;;;;;;;;5083061;28;20062;-67
2023/09/13 08:36:41;;;;;;;7.43;1.83;;;;;;;;;;5079824;28;20052;-66
2023/09/13 08:39:09;;;;;;;5.38;1.75;;;;;;;;;;5086836;28;20048;-66
2023/09/13 08:41:37;;;;;;;4.65;1.60;;;;;;;;;;5085875;28;20072;-66
2023/09/13 08:44:05;;;;;;;8.65;2.13;;;;;;;;;;5071084;28;20519;-66
2023/09/13 08:46:32;;;;;;;7.53;1.63;;;;;;;;;;5085992;28;20067;-66
2023/09/13 08:49:00;;;;;;;3.88;1.50;;;;;;;;;;5068992;28;20043;-66
2023/09/13 08:51:29;;;;;;;6.82;1.70;;;;;;;;;;5087966;28;20048;-66
2023/09/13 08:53:56;;;;;;;3.75;1.40;;;;;;;;;;5086692;28;20050;-66
2023/09/13 08:56:25;;;;;;;4.35;1.35;;;;;;;;;;5086211;28;20076;-67
2023/09/13 08:58:54;;;;;;;4.03;1.42;;;;;;;;;;5084765;28;20056;-66
2023/09/13 09:01:23;;;;;;;5.32;1.42;;;;;;;;;;5088602;28;20044;-66
2023/09/13 09:03:51;;;;;;;2.95;1.15;;;;;;;;;;5080374;28;20049;-66
2023/09/13 09:06:19;;;;;;;2.75;1.00;;;;;;;;;;5073780;28;20060;-66
2023/09/13 09:08:47;;;;;;;3.42;1.30;;;;;;;;;;5083154;28;20503;-66
2023/09/13 09:11:14;;;;;;;3.55;1.35;;;;;;;;;;5085869;28;20463;-66
2023/09/13 09:13:42;;;;;;;3.63;1.10;;;;;;;;;;5083485;28;20056;-66
2023/09/13 09:16:11;;;;;;;3.90;1.10;;;;;;;;;;5085680;28;20048;-66
2023/09/13 09:18:40;;;;;;;2.53;1.30;;;;;;;;;;5089832;28;20051;-66
2023/09/13 09:21:07;;;;;;;3.20;1.40;;;;;;;;;;5085558;28;20483;-66
2023/09/13 09:23:35;;;;;;;3.33;1.35;;;;;;;;;;5071227;28;20055;-66
2023/09/13 09:26:04;;;;;;;4.38;1.33;;;;;;;;;;5087298;28;20139;-66
2023/09/13 09:28:31;;;;;;;3.80;1.30;;;;;;;;;;5088100;28;20051;-66
2023/09/13 09:31:00;;;;;;;3.67;1.30;;;;;;;;;;5084579;28;20045;-67
2023/09/13 09:33:30;;;;;;;3.63;1.33;;;;;;;;;;5087097;28;20044;-66
2023/09/13 09:35:58;;;;;;;3.92;1.77;;;;;;;;;;5084394;28;20060;-66
2023/09/13 09:38:26;;;;;;;3.63;1.65;;;;;;;;;;5088933;28;20055;-65
2023/09/13 09:40:56;;;;;;;4.07;2.50;;;;;;;;;;5087042;28;20151;-66
2023/09/13 09:43:24;;;;;;;4.35;2.40;;;;;;;;;;5083963;28;20055;-66
2023/09/13 09:45:51;;;;;;;5.40;2.80;;;;;;;;;;5085402;28;20055;-66
2023/09/13 09:48:19;;;;;;;6.90;2.47;;;;;;;;;;5069689;28;20048;-66
2023/09/13 09:50:48;;;;;;;7.45;2.50;;;;;;;;;;5068716;28;20064;-66
2023/09/13 09:53:17;;;;;;;5.70;2.28;;;;;;;;;;5083495;28;20073;-65
2023/09/13 09:55:44;;;;;;;4.70;1.80;;;;;;;;;;5082548;28;20048;-65
2023/09/13 09:58:12;;;;;;;4.63;1.70;;;;;;;;;;5088425;28;20506;-65
2023/09/13 10:00:46;;;;;;;4.32;1.80;;;;;;;;;;5084808;28;20051;-65
2023/09/13 10:03:17;;;;;;;5.07;1.60;;;;;;;;;;5082598;28;20044;-66
2023/09/13 10:05:57;;;;;;;4.68;1.70;;;;;;;;;;5086838;28;20036;-66
2023/09/13 10:08:38;;;;;;;3.42;1.67;;;;;;;;;;5087548;28;20051;-65
2023/09/13 10:11:05;;;;;;;7.35;1.90;;;;;;;;;;5084963;28;20097;-66
2023/09/13 10:13:32;;;;;;;3.40;1.50;;;;;;;;;;5082503;28;20044;-65
2023/09/13 10:16:01;;;;;;;3.13;1.50;;;;;;;;;;5085464;28;20052;-65
2023/09/13 10:18:28;;;;;;;4.93;1.63;;;;;;;;;;5079163;28;20510;-65
2023/09/13 10:20:58;;;;;;;7.15;1.60;;;;;;;;;;5068455;28;20050;-65
2023/09/13 10:23:30;;;;;;;8.93;1.70;;;;;;;;;;5059866;28;20063;-65
2023/09/13 10:26:00;;;;;;;6.20;1.67;;;;;;;;;;5088291;28;20048;-65
2023/09/13 10:28:28;;;;;;;6.80;1.60;;;;;;;;;;5088131;28;20090;-65
2023/09/13 10:30:58;;;;;;;5.03;1.58;;;;;;;;;;5081122;28;20407;-65
2023/09/13 10:33:26;;;;;;;6.45;1.20;;;;;;;;;;5088358;28;20047;-65
2023/09/13 10:35:57;;;;;;;5.45;1.60;;;;;;;;;;5086375;28;20063;-64
2023/09/13 10:38:29;;;;;;;7.88;1.55;;;;;;;;;;5077881;28;20045;-66
2023/09/13 10:41:03;;;;;;;4.53;1.40;;;;;;;;;;5081939;28;20059;-65
2023/09/13 10:43:31;;;;;;;5.38;1.70;;;;;;;;;;5077291;28;20071;-64
2023/09/13 10:46:01;;;;;;;6.22;1.10;;;;;;;;;;5088070;28;20059;-66
2023/09/13 10:48:28;;;;;;;8.50;1.33;;;;;;;;;;5080185;28;20487;-65
2023/09/13 10:50:56;;;;;;;5.65;1.20;;;;;;;;;;5069195;28;20060;-65
2023/09/13 10:53:23;;;;;;;4.30;1.10;;;;;;;;;;5086421;28;20071;-65
2023/09/13 10:55:52;;;;;;;9.70;1.30;;;;;;;;;;5078464;28;20051;-65
2023/09/13 10:58:21;;;;;;;4.63;1.02;;;;;;;;;;5076753;28;20067;-65
2023/09/13 11:00:50;;;;;;;6.53;1.20;;;;;;;;;;5086311;28;20079;-64
2023/09/13 11:03:17;;;;;;;5.72;1.35;;;;;;;;;;5085405;28;20075;-66
2023/09/13 11:05:46;;;;;;;3.38;1.20;;;;;;;;;;5076477;28;20047;-65
2023/09/13 11:08:25;;;;;;;6.65;1.35;;;;;;;;;;5081109;28;20040;-66
2023/09/13 11:10:54;;;;;;;5.43;1.02;;;;;;;;;;5077878;28;20048;-65
2023/09/13 11:13:30;;;;;;;7.43;1.20;;;;;;;;;;5082928;28;20056;-65
2023/09/13 11:16:01;;;;;;;9.07;1.50;;;;;;;;;;5081735;28;20131;-65
2023/09/13 11:18:28;;;;;;;5.43;0.90;;;;;;;;;;5084356;28;20040;-65
2023/09/13 11:20:56;;;;;;;5.10;0.90;;;;;;;;;;5085671;28;20479;-65
2023/09/13 11:23:23;;;;;;;5.50;1.10;;;;;;;;;;5087179;28;20453;-65
2023/09/13 11:25:52;;;;;;;4.13;1.00;;;;;;;;;;5088319;28;20118;-65
2023/09/13 11:28:31;;;;;;;3.90;1.02;;;;;;;;;;5085137;28;20043;-66
2023/09/13 11:30:59;;;;;;;6.47;1.27;;;;;;;;;;5083220;28;20127;-65
2023/09/13 11:33:28;;;;;;;3.42;1.08;;;;;;;;;;5085338;28;20051;-65
2023/09/13 11:35:55;;;;;;;4.75;1.42;;;;;;;;;;5078386;28;20052;-65
2023/09/13 11:38:23;;;;;;;4.95;1.10;;;;;;;;;;5080808;28;20051;-65
2023/09/13 11:40:51;;;;;;;3.55;1.38;;;;;;;;;;5074437;28;20056;-65
2023/09/13 11:43:22;;;;;;;2.50;1.00;;;;;;;;;;5088519;28;20056;-65
2023/09/13 11:45:51;;;;;;;6.13;0.93;;;;;;;;;;5077945;28;20048;-65
2023/09/13 11:48:22;;;;;;;8.18;1.25;;;;;;;;;;5086671;28;20055;-65
2023/09/13 11:50:52;;;;;;;8.02;1.02;;;;;;;;;;5086065;28;20059;-66
2023/09/13 11:53:25;;;;;;;5.30;0.95;;;;;;;;;;5081251;28;20044;-65
2023/09/13 11:55:55;;;;;;;9.05;1.42;;;;;;;;;;5088084;28;20055;-65
2023/09/13 11:58:30;;;;;;;4.00;0.93;;;;;;;;;;5087439;28;21258;-65
2023/09/13 12:00:59;;;;;;;5.03;1.10;;;;;;;;;;5084620;28;20048;-65
2023/09/13 12:03:28;;;;;;;8.88;1.77;;;;;;;;;;5085189;28;20047;-65
2023/09/13 12:05:56;;;;;;;5.43;0.90;;;;;;;;;;5081066;28;20044;-65
2023/09/13 12:08:23;;;;;;;4.88;1.02;;;;;;;;;;5086164;28;20048;-67
2023/09/13 12:10:51;;;;;;;5.28;1.10;;;;;;;;;;5083986;28;20048;-65
2023/09/13 12:13:19;;;;;;;4.50;1.00;;;;;;;;;;5085002;28;20054;-65
2023/09/13 12:16:01;;;;;;;6.72;1.30;;;;;;;;;;5089726;28;20453;-65
2023/09/13 12:18:29;;;;;;;8.32;1.90;;;;;;;;;;5086176;28;20044;-65
2023/09/13 12:20:59;;;;;;;5.13;1.30;;;;;;;;;;5082158;28;20044;-65
2023/09/13 12:23:27;;;;;;;3.47;1.08;;;;;;;;;;5075232;28;20060;-64
2023/09/13 12:25:56;;;;;;;6.85;1.10;;;;;;;;;;5075344;28;20411;-66
2023/09/13 12:28:27;;;;;;;4.97;1.35;;;;;;;;;;5082232;28;20048;-65
2023/09/13 12:30:55;;;;;;;4.90;0.98;;;;;;;;;;5082671;28;20048;-65
2023/09/13 12:33:24;;;;;;;3.63;0.70;;;;;;;;;;5080550;28;20805;-65
2023/09/13 12:35:52;;;;;;;6.10;1.40;;;;;;;;;;5086544;28;20114;-64
2023/09/13 12:38:19;;;;;;;6.60;1.08;;;;;;;;;;5084477;28;20040;-65
2023/09/13 12:40:52;;;;;;;3.22;1.02;;;;;;;;;;5064208;28;20507;-66
2023/09/13 12:43:20;;;;;;;5.68;0.80;;;;;;;;;;5090263;28;20047;-65
2023/09/13 12:45:48;;;;;;;3.50;0.90;;;;;;;;;;5091268;28;20109;-65
2023/09/13 12:48:15;;;;;;;5.80;1.15;;;;;;;;;;5083311;28;20131;-65
2023/09/13 12:50:44;;;;;;;5.05;1.10;;;;;;;;;;5083985;28;20063;-66
2023/09/13 12:53:11;;;;;;;4.35;1.13;;;;;;;;;;5089341;28;20415;-65
2023/09/13 12:55:39;;;;;;;5.32;1.38;;;;;;;;;;5093984;28;20047;-65
2023/09/13 12:58:07;;;;;;;6.13;1.00;;;;;;;;;;5087669;28;20445;-65
2023/09/13 13:00:34;;;;;;;9.52;1.20;;;;;;;;;;5089244;28;20566;-65
2023/09/13 13:03:02;;;;;;;4.18;1.00;;;;;;;;;;5079136;28;20055;-65
2023/09/13 13:05:30;;;;;;;7.68;0.98;;;;;;;;;;5079529;28;20127;-65
2023/09/13 13:08:05;;;;;;;10.70;1.08;;;;;;;;;;5091251;28;20133;-66
2023/09/13 13:10:33;;;;;;;5.60;0.98;;;;;;;;;;5079762;28;20635;-65
2023/09/13 13:13:00;;;;;;;8.13;1.65;;;;;;;;;;5089737;28;20410;-65
2023/09/13 13:15:32;;;;;;;5.22;1.20;;;;;;;;;;5088915;28;20403;-65
2023/09/13 13:17:59;;;;;;;5.75;1.17;;;;;;;;;;5089086;28;20052;-66
2023/09/13 13:20:27;;;;;;;5.00;0.88;;;;;;;;;;5085085;28;20048;-66
2023/09/13 13:22:54;;;;;;;6.20;1.10;;;;;;;;;;5083409;28;20047;-66
2023/09/13 13:25:23;;;;;;;4.75;0.90;;;;;;;;;;5085886;28;20048;-66
2023/09/13 13:27:50;;;;;;;3.05;1.25;;;;;;;;;;5091018;28;20064;-65
2023/09/13 13:30:17;;;;;;;10.95;1.20;;;;;;;;;;5078827;28;20122;-66
2023/09/13 13:32:44;;;;;;;7.00;1.50;;;;;;;;;;5083234;28;20139;-66
2023/09/13 13:35:12;;;;;;;4.57;1.02;;;;;;;;;;5083460;28;20048;-66
2023/09/13 13:37:45;;;;;;;4.72;1.08;;;;;;;;;;5082776;28;20044;-66
2023/09/13 13:40:13;;;;;;;4.07;0.98;;;;;;;;;;5073549;28;20576;-66
2023/09/13 13:42:41;;;;;;;3.33;0.90;;;;;;;;;;5081126;28;20056;-66
2023/09/13 13:45:10;;;;;;;8.48;1.48;;;;;;;;;;5072083;28;20059;-65
2023/09/13 13:47:38;;;;;;;7.43;1.10;;;;;;;;;;5079301;28;20044;-66
2023/09/13 13:50:05;;;;;;;4.20;1.20;;;;;;;;;;5083075;28;20047;-65
2023/09/13 13:52:32;;;;;;;3.33;0.80;;;;;;;;;;5081661;28;20055;-65
2023/09/13 13:55:00;;;;;;;4.82;1.30;;;;;;;;;;5088757;28;20562;-62
2023/09/13 13:57:27;;;;;;;5.88;1.20;;;;;;;;;;5081175;28;20055;-62
2023/09/13 13:59:56;;;;;;;5.20;1.05;;;;;;;;;;5084574;28;20076;-62
2023/09/13 14:02:23;;;;;;;7.15;1.02;;;;;;;;;;5084603;28;20048;-63
2023/09/13 14:04:50;;;;;;;5.07;1.17;;;;;;;;;;5082710;28;20045;-62
2023/09/13 14:07:18;;;;;;;7.65;1.20;;;;;;;;;;5085455;28;20055;-63
2023/09/13 14:09:45;;;;;;;4.00;0.98;;;;;;;;;;5088435;28;20048;-64
2023/09/13 14:12:12;;;;;;;7.03;1.30;;;;;;;;;;5088547;28;20048;-62
2023/09/13 14:14:40;;;;;;;3.25;0.80;;;;;;;;;;5082350;28;20071;-64
2023/09/13 14:17:08;;;;;;;7.30;1.27;;;;;;;;;;5079633;28;20050;-62
2023/09/13 14:19:35;;;;;;;5.63;1.15;;;;;;;;;;5076662;28;20515;-64
2023/09/13 14:22:04;;;;;;;4.30;1.10;;;;;;;;;;5087550;28;20098;-62
2023/09/13 14:24:31;;;;;;;8.20;1.20;;;;;;;;;;5069553;28;20044;-63
2023/09/13 14:26:58;;;;;;;9.80;1.08;;;;;;;;;;5091360;28;20051;-63
2023/09/13 14:29:25;;;;;;;5.93;1.55;;;;;;;;;;5070548;28;20042;-63
2023/09/13 14:31:56;;;;;;;11.70;1.00;;;;;;;;;;5086821;28;20052;-62
2023/09/13 14:34:25;;;;;;;7.07;1.40;;;;;;;;;;5078503;28;20050;-63
2023/09/13 14:36:52;;;;;;;9.02;1.45;;;;;;;;;;5082600;28;20160;-63
2023/09/13 14:39:21;;;;;;;2.00;0.80;;;;;;;;;;5086881;28;20044;-63
2023/09/13 14:41:52;;;;;;;6.03;1.20;;;;;;;;;;5082881;28;20415;-62
2023/09/13 14:44:20;;;;;;;5.78;1.15;;;;;;;;;;5088069;28;20072;-63
2023/09/13 14:46:47;;;;;;;2.35;0.98;;;;;;;;;;5083957;28;20055;-63
2023/09/13 14:49:19;;;;;;;4.15;1.25;;;;;;;;;;5076778;28;20051;-63